Time;durP1;ratioP1;P1;durP2;ratioP2;P2;SDS_P1;SDS_P2;PMS_P1;PMS_P2;Temp;Humidity;BMP_temperature;BMP_pressure;BME280_temperature;BME280_humidity;BME280_pressure;Samples;Min_cycle;Max_cycle;Signal;HPM_P1;HPM_P2
2023/05/17 00:00:49;;;;;;;6.55;2.33;;;;;;;20.14;44.15;102383.84;5120876;27;20039;-66
2023/05/17 00:03:15;;;;;;;4.90;2.28;;;;;;;20.15;44.09;102379.38;5119679;27;20258;-66
2023/05/17 00:05:41;;;;;;;4.43;2.42;;;;;;;20.12;44.30;102390.25;5119980;27;20046;-67
2023/05/17 00:08:06;;;;;;;5.43;2.50;;;;;;;20.12;44.28;102387.59;5119295;27;20039;-66
2023/05/17 00:10:31;;;;;;;4.68;1.92;;;;;;;20.06;44.41;102389.00;5125230;27;20111;-66
2023/05/17 00:12:57;;;;;;;4.60;2.10;;;;;;;20.05;44.47;102382.03;5115474;27;20027;-66
2023/05/17 00:15:22;;;;;;;6.20;2.10;;;;;;;20.09;44.26;102382.59;5120973;27;20046;-67
2023/05/17 00:17:48;;;;;;;3.20;1.88;;;;;;;20.08;44.41;102386.19;5121674;27;20036;-66
2023/05/17 00:20:13;;;;;;;2.85;2.25;;;;;;;20.04;44.34;102390.13;5121883;27;20050;-66
2023/05/17 00:22:39;;;;;;;3.95;2.33;;;;;;;20.03;44.38;102391.94;5120038;27;20046;-66
2023/05/17 00:25:06;;;;;;;4.22;1.90;;;;;;;20.01;44.43;102391.25;5119572;27;20039;-66
2023/05/17 00:27:31;;;;;;;4.93;2.15;;;;;;;20.08;44.31;102394.13;5125049;27;20039;-66
2023/05/17 00:29:57;;;;;;;5.03;2.38;;;;;;;20.04;44.39;102396.25;5119179;27;20031;-66
2023/05/17 00:32:22;;;;;;;5.70;2.17;;;;;;;20.02;44.48;102400.00;5120135;27;20039;-67
2023/05/17 00:34:49;;;;;;;5.20;1.92;;;;;;;19.97;44.56;102400.44;5116564;27;20035;-66
2023/05/17 00:37:14;;;;;;;4.05;2.05;;;;;;;20.00;44.49;102401.97;5120436;27;20031;-66
2023/05/17 00:39:40;;;;;;;6.38;2.30;;;;;;;19.97;44.57;102389.03;5120890;27;20791;-67
2023/05/17 00:42:05;;;;;;;3.22;2.10;;;;;;;19.99;44.62;102393.19;5116581;27;20055;-67
2023/05/17 00:44:31;;;;;;;6.57;2.42;;;;;;;19.97;44.61;102392.50;5120684;27;20035;-66
2023/05/17 00:46:58;;;;;;;4.57;1.98;;;;;;;19.97;44.60;102395.16;5119845;27;20469;-67
2023/05/17 00:49:25;;;;;;;5.57;2.33;;;;;;;19.94;44.60;102399.91;5117618;27;20039;-66
2023/05/17 00:51:52;;;;;;;3.95;1.98;;;;;;;19.91;44.76;102393.91;5117105;27;20071;-67
2023/05/17 00:54:18;;;;;;;3.42;2.03;;;;;;;19.93;44.55;102393.78;5116224;27;20039;-66
2023/05/17 00:56:43;;;;;;;3.53;2.28;;;;;;;19.90;44.71;102394.88;5123812;27;20125;-66
2023/05/17 00:59:11;;;;;;;3.50;2.00;;;;;;;19.86;44.75;102395.31;5118215;27;20050;-66
2023/05/17 01:01:40;;;;;;;4.78;1.90;;;;;;;19.86;44.78;102396.13;5119624;27;20051;-67
2023/05/17 01:04:07;;;;;;;4.28;2.30;;;;;;;19.85;44.74;102404.22;5120123;27;20042;-66
2023/05/17 01:06:35;;;;;;;3.80;2.55;;;;;;;19.83;44.82;102400.88;5119013;27;20503;-67
2023/05/17 01:09:00;;;;;;;5.30;2.05;;;;;;;19.81;44.85;102398.38;5120688;27;20039;-66
2023/05/17 01:11:52;;;;;;;4.38;2.20;;;;;;;19.84;44.84;102398.09;5118651;27;20069;-67
2023/05/17 01:14:40;;;;;;;6.95;2.72;;;;;;;19.82;44.61;102397.41;5118836;27;20524;-67
2023/05/17 01:17:16;;;;;;;4.30;1.70;;;;;;;19.80;44.94;102396.72;5115560;27;21603;-67
2023/05/17 01:19:54;;;;;;;5.82;1.98;;;;;;;19.80;44.86;102399.38;5121359;27;20076;-67
2023/05/17 01:22:46;;;;;;;7.10;2.40;;;;;;;19.80;44.96;102396.72;5115759;27;20036;-68
2023/05/17 01:25:51;;;;;;;6.57;2.10;;;;;;;19.77;44.89;102393.53;5118380;27;20045;-67
2023/05/17 01:28:19;;;;;;;2.83;1.95;;;;;;;19.80;44.81;102395.88;5117893;27;20101;-67
2023/05/17 01:30:46;;;;;;;4.40;2.13;;;;;;;19.78;44.88;102397.84;5120381;27;20513;-67
2023/05/17 01:33:13;;;;;;;4.95;2.03;;;;;;;19.76;44.95;102405.09;5121921;27;20027;-68
2023/05/17 01:35:40;;;;;;;4.72;2.60;;;;;;;19.76;44.89;102403.28;5119998;27;20039;-67
2023/05/17 01:38:05;;;;;;;5.20;1.75;;;;;;;19.72;45.00;102407.16;5121779;27;20046;-67
2023/05/17 01:40:35;;;;;;;3.70;1.73;;;;;;;19.74;44.96;102399.06;5114882;27;20051;-67
2023/05/17 01:43:29;;;;;;;3.60;1.90;;;;;;;19.75;44.90;102412.19;5118500;27;20055;-67
2023/05/17 01:46:33;;;;;;;6.10;2.85;;;;;;;19.73;45.09;102415.91;5111417;27;20047;-67
2023/05/17 01:49:24;;;;;;;5.97;1.90;;;;;;;19.72;45.16;102401.84;5092201;28;20043;-67
2023/05/17 01:52:12;;;;;;;3.72;1.98;;;;;;;19.71;45.00;102413.41;5114255;28;20059;-67
2023/05/17 01:54:55;;;;;;;4.28;2.03;;;;;;;19.71;45.29;102405.47;5118261;27;20738;-67
2023/05/17 01:57:27;;;;;;;4.35;1.83;;;;;;;19.69;45.13;102414.53;5119849;27;21400;-67
2023/05/17 01:59:54;;;;;;;3.67;1.75;;;;;;;19.69;44.99;102417.16;5117804;28;20393;-67
2023/05/17 02:02:21;;;;;;;4.03;1.98;;;;;;;19.69;45.07;102418.00;5118033;28;20039;-67
2023/05/17 02:04:47;;;;;;;4.07;1.88;;;;;;;19.68;45.06;102423.44;5121487;27;20049;-67
2023/05/17 02:07:12;;;;;;;3.63;1.92;;;;;;;19.64;45.18;102422.88;5117131;28;20039;-67
2023/05/17 02:09:38;;;;;;;2.75;1.80;;;;;;;19.64;45.38;102419.41;5121221;28;20043;-67
2023/05/17 02:12:04;;;;;;;4.82;2.00;;;;;;;19.64;45.02;102420.25;5116143;28;20042;-66
2023/05/17 02:14:29;;;;;;;5.28;1.80;;;;;;;19.61;45.18;102424.00;5120968;27;20035;-67
2023/05/17 02:16:55;;;;;;;4.13;1.63;;;;;;;19.63;45.14;102425.66;5115101;28;20035;-67
2023/05/17 02:19:21;;;;;;;4.63;2.00;;;;;;;19.57;45.15;102417.34;5117322;27;20085;-66
2023/05/17 02:21:46;;;;;;;4.13;1.95;;;;;;;19.52;45.22;102416.03;5114773;27;20100;-67
2023/05/17 02:24:12;;;;;;;5.78;1.77;;;;;;;19.61;45.17;102428.44;5116070;28;20048;-67
2023/05/17 02:26:41;;;;;;;3.95;1.90;;;;;;;19.63;45.13;102437.06;5118209;28;20035;-67
2023/05/17 02:29:07;;;;;;;5.10;1.90;;;;;;;19.60;45.13;102432.91;5123043;28;20156;-67
2023/05/17 02:31:33;;;;;;;2.08;1.50;;;;;;;19.60;45.06;102434.72;5118734;28;20031;-67
2023/05/17 02:33:58;;;;;;;4.60;1.55;;;;;;;19.62;45.19;102435.41;5115710;28;20035;-67
2023/05/17 02:36:24;;;;;;;2.42;1.45;;;;;;;19.58;45.17;102442.78;5118493;27;20039;-67
2023/05/17 02:38:49;;;;;;;2.53;1.50;;;;;;;19.59;45.28;102440.97;5119680;28;20050;-67
2023/05/17 02:41:15;;;;;;;4.97;2.05;;;;;;;19.55;45.22;102440.38;5112706;28;20067;-67
2023/05/17 02:43:40;;;;;;;3.78;1.90;;;;;;;19.56;45.19;102444.69;5117513;28;20044;-67
2023/05/17 02:46:06;;;;;;;5.35;2.20;;;;;;;19.53;45.24;102444.94;5121578;27;20521;-67
2023/05/17 02:48:31;;;;;;;5.30;1.95;;;;;;;19.53;45.32;102449.41;5124321;27;20042;-67
2023/05/17 02:50:57;;;;;;;3.85;1.75;;;;;;;19.52;45.31;102451.22;5120764;27;20689;-67
2023/05/17 02:53:22;;;;;;;3.38;1.58;;;;;;;19.52;45.17;102458.31;5116990;27;20038;-67
2023/05/17 02:55:48;;;;;;;5.15;2.10;;;;;;;19.51;45.37;102454.81;5117560;27;20138;-67
2023/05/17 02:58:14;;;;;;;2.58;1.50;;;;;;;19.50;45.36;102457.63;5122941;27;20042;-67
2023/05/17 03:00:43;;;;;;;3.75;1.63;;;;;;;19.47;45.40;102455.25;5120967;27;20157;-67
2023/05/17 03:03:09;;;;;;;4.93;2.03;;;;;;;19.46;45.40;102464.16;5140367;27;20035;-67
2023/05/17 03:05:35;;;;;;;4.85;1.70;;;;;;;19.51;45.33;102462.75;5122258;27;20035;-67
2023/05/17 03:08:01;;;;;;;3.60;1.58;;;;;;;19.48;45.59;102473.59;5118994;27;20135;-67
2023/05/17 03:10:27;;;;;;;4.43;1.58;;;;;;;19.46;45.42;102456.22;5116769;27;20039;-67
2023/05/17 03:12:53;;;;;;;4.60;1.90;;;;;;;19.47;45.38;102466.66;5119665;27;20107;-67
2023/05/17 03:15:21;;;;;;;4.85;1.73;;;;;;;19.47;45.28;102469.28;5117322;27;21818;-67
2023/05/17 03:17:46;;;;;;;4.30;1.90;;;;;;;19.44;45.47;102474.84;5136958;27;20035;-67
2023/05/17 03:20:14;;;;;;;3.55;1.48;;;;;;;19.48;45.35;102476.25;5119704;27;20551;-67
2023/05/17 03:22:40;;;;;;;3.63;1.60;;;;;;;19.47;45.32;102479.03;5122305;27;20075;-67
2023/05/17 03:25:07;;;;;;;3.90;1.48;;;;;;;19.47;45.34;102476.38;5117418;27;20031;-67
2023/05/17 03:27:33;;;;;;;6.13;2.13;;;;;;;19.47;45.23;102477.22;5136948;27;20035;-67
2023/05/17 03:29:59;;;;;;;1.80;1.13;;;;;;;19.46;45.34;102482.66;5120370;27;20042;-67
2023/05/17 03:32:25;;;;;;;2.85;1.60;;;;;;;19.46;45.30;102494.03;5119933;27;20817;-68
2023/05/17 03:34:51;;;;;;;5.03;1.80;;;;;;;19.47;45.32;102490.44;5119679;27;20039;-67
2023/05/17 03:37:16;;;;;;;3.13;1.67;;;;;;;19.42;45.35;102490.00;5117307;27;20046;-67
2023/05/17 03:39:42;;;;;;;3.47;1.55;;;;;;;19.42;45.36;102495.31;5114840;27;20389;-67
2023/05/17 03:42:08;;;;;;;2.38;1.38;;;;;;;19.43;45.28;102496.13;5120267;27;20055;-67
2023/05/17 03:44:34;;;;;;;2.58;1.40;;;;;;;19.44;45.32;102503.09;5116975;27;20162;-67
2023/05/17 03:47:01;;;;;;;2.75;1.60;;;;;;;19.42;45.41;102507.69;5118595;27;20617;-67
2023/05/17 03:49:27;;;;;;;3.45;1.40;;;;;;;19.41;45.43;102498.91;5118383;27;20035;-67
2023/05/17 03:51:53;;;;;;;4.45;1.52;;;;;;;19.42;45.33;102511.16;5138062;27;20043;-67
2023/05/17 03:54:18;;;;;;;2.95;1.40;;;;;;;19.43;45.29;102507.53;5104724;27;20034;-67
2023/05/17 03:56:47;;;;;;;3.80;1.75;;;;;;;19.40;45.36;102506.97;5113771;27;20132;-67
2023/05/17 03:59:13;;;;;;;3.33;1.60;;;;;;;19.41;45.37;102514.75;5118665;27;20027;-67
2023/05/17 04:01:39;;;;;;;3.40;1.60;;;;;;;19.42;45.29;102515.59;5118575;27;20040;-67
2023/05/17 04:04:05;;;;;;;5.00;1.70;;;;;;;19.39;45.29;102510.56;5115584;27;20074;-67
2023/05/17 04:06:31;;;;;;;4.60;1.30;;;;;;;19.39;45.30;102524.63;5115035;27;20039;-67
2023/05/17 04:08:58;;;;;;;2.60;1.45;;;;;;;19.38;45.33;102525.56;5118956;27;20042;-67
2023/05/17 04:11:26;;;;;;;3.20;1.50;;;;;;;19.37;45.39;102529.19;5119458;27;20039;-67
2023/05/17 04:13:52;;;;;;;2.22;1.50;;;;;;;19.35;45.31;102528.50;5117873;27;20034;-68
2023/05/17 04:16:18;;;;;;;1.88;1.30;;;;;;;19.38;45.29;102528.22;5118056;27;20039;-67
2023/05/17 04:18:44;;;;;;;1.75;0.77;;;;;;;19.39;45.33;102527.28;5120821;27;20488;-67
2023/05/17 04:21:10;;;;;;;3.53;1.63;;;;;;;19.39;45.27;102534.34;5116520;27;20788;-67
2023/05/17 04:23:37;;;;;;;3.45;1.42;;;;;;;19.38;45.30;102537.94;5116921;27;20035;-67
2023/05/17 04:26:04;;;;;;;3.25;1.40;;;;;;;19.37;45.30;102539.75;5113033;27;20035;-67
2023/05/17 04:28:33;;;;;;;3.42;1.38;;;;;;;19.36;45.33;102548.66;5114245;27;20046;-66
2023/05/17 04:31:00;;;;;;;2.85;1.77;;;;;;;19.37;45.29;102552.97;5120580;27;20035;-67
2023/05/17 04:33:26;;;;;;;3.35;1.38;;;;;;;19.38;45.24;102551.16;5114849;27;20736;-67
2023/05/17 04:35:55;;;;;;;1.85;1.50;;;;;;;19.38;45.29;102548.53;5116380;27;20139;-67
2023/05/17 04:38:22;;;;;;;;;;;;;;;19.36;45.29;102561.88;5116215;27;20987;-67
2023/05/17 04:40:50;;;;;;;5.95;1.63;;;;;;;19.36;45.33;102561.88;5116993;27;20451;-67
2023/05/17 04:43:15;;;;;;;3.22;1.30;;;;;;;19.38;45.27;102565.22;5121968;27;20051;-67
2023/05/17 04:45:41;;;;;;;3.25;1.35;;;;;;;19.39;45.16;102572.19;5120760;27;20038;-67
2023/05/17 04:48:07;;;;;;;2.20;1.30;;;;;;;19.39;45.12;102577.47;5121457;27;20435;-67
2023/05/17 04:50:33;;;;;;;2.17;1.40;;;;;;;19.38;45.11;102578.41;5125512;27;20038;-67
2023/05/17 04:52:58;;;;;;;2.00;1.05;;;;;;;19.37;45.12;102584.66;5120968;27;20042;-67
2023/05/17 04:55:25;;;;;;;2.90;1.60;;;;;;;19.39;45.35;102589.81;5118243;27;20516;-67
2023/05/17 04:57:51;;;;;;;2.17;1.20;;;;;;;19.37;45.14;102595.25;5118187;27;20035;-67
2023/05/17 05:00:17;;;;;;;2.78;1.05;;;;;;;19.36;45.10;102598.84;5118243;27;20200;-67
2023/05/17 05:02:48;;;;;;;2.85;1.63;;;;;;;19.36;45.15;102601.50;5120693;27;20130;-65
2023/05/17 05:05:14;;;;;;;4.40;1.45;;;;;;;19.39;44.98;102606.53;5119496;27;20052;-67
2023/05/17 05:07:42;;;;;;;4.68;1.80;;;;;;;19.40;45.05;102615.28;5122657;27;20031;-67
2023/05/17 05:10:08;;;;;;;4.38;1.40;;;;;;;19.39;45.03;102619.75;5119336;27;20073;-67
2023/05/17 05:12:35;;;;;;;4.18;1.23;;;;;;;19.38;44.96;102617.19;5120075;27;20465;-67
2023/05/17 05:15:00;;;;;;;2.15;1.30;;;;;;;19.42;44.95;102623.91;5123014;27;20050;-67
2023/05/17 05:17:26;;;;;;;3.53;1.33;;;;;;;19.40;44.97;102620.56;5123690;27;20319;-67
2023/05/17 05:19:52;;;;;;;1.92;1.20;;;;;;;19.38;44.81;102630.41;5118112;27;20080;-67
2023/05/17 05:22:18;;;;;;;2.45;1.40;;;;;;;19.41;44.97;102633.66;5119683;27;20039;-67
2023/05/17 05:24:43;;;;;;;2.10;0.93;;;;;;;19.42;44.78;102634.50;5120456;27;20578;-67
2023/05/17 05:27:09;;;;;;;3.50;1.50;;;;;;;19.43;44.79;102644.09;5117106;27;20114;-67
2023/05/17 05:29:36;;;;;;;4.28;1.48;;;;;;;19.41;44.59;102644.22;5121664;27;20034;-67
2023/05/17 05:32:01;;;;;;;3.15;1.08;;;;;;;19.42;44.79;102652.97;5120966;27;20048;-67
2023/05/17 05:34:28;;;;;;;2.72;1.17;;;;;;;19.42;44.72;102645.06;5117071;27;20028;-67
2023/05/17 05:36:54;;;;;;;3.55;1.35;;;;;;;19.44;44.66;102648.41;5114830;27;20035;-67
2023/05/17 05:39:20;;;;;;;2.67;1.10;;;;;;;19.43;44.61;102652.84;5122379;27;20027;-67
2023/05/17 05:41:46;;;;;;;4.03;1.30;;;;;;;19.41;44.70;102659.22;5116472;27;20051;-67
2023/05/17 05:44:11;;;;;;;2.65;1.25;;;;;;;19.42;44.63;102658.25;5113244;27;20506;-67
2023/05/17 05:46:37;;;;;;;2.80;1.20;;;;;;;19.47;44.51;102663.97;5117285;27;20064;-67
2023/05/17 05:49:04;;;;;;;3.60;1.40;;;;;;;19.44;44.62;102658.97;5115794;27;20055;-67
2023/05/17 05:51:31;;;;;;;2.08;1.20;;;;;;;19.45;44.47;102665.91;5121358;28;20027;-67
2023/05/17 05:53:58;;;;;;;2.38;1.40;;;;;;;19.44;44.48;102667.72;5118128;28;20038;-67
2023/05/17 05:56:26;;;;;;;3.05;1.63;;;;;;;19.44;44.53;102669.53;5121787;27;20083;-67
2023/05/17 05:58:52;;;;;;;2.10;1.25;;;;;;;19.42;44.52;102672.31;5120692;27;20075;-67
2023/05/17 06:01:18;;;;;;;2.28;0.80;;;;;;;19.44;44.50;102678.28;5117963;28;20050;-67
2023/05/17 06:03:43;;;;;;;2.63;1.20;;;;;;;19.44;44.49;102683.56;5121199;28;20047;-67
2023/05/17 06:06:09;;;;;;;1.38;0.88;;;;;;;19.44;44.25;102677.47;5118631;28;20031;-67
2023/05/17 06:08:35;;;;;;;1.52;1.23;;;;;;;19.46;44.38;102686.91;5120049;28;20039;-67
2023/05/17 06:11:00;;;;;;;2.42;0.90;;;;;;;19.46;44.37;102686.91;5117746;28;20099;-67
2023/05/17 06:13:26;;;;;;;2.17;1.25;;;;;;;19.47;44.41;102685.13;5118499;28;20407;-67
2023/05/17 06:15:51;;;;;;;2.25;1.23;;;;;;;19.48;44.24;102692.91;5117887;28;20047;-67
2023/05/17 06:18:17;;;;;;;2.83;1.42;;;;;;;19.47;44.28;102696.53;5116463;27;20035;-67
2023/05/17 06:20:42;;;;;;;3.13;1.10;;;;;;;19.47;44.23;102696.53;5119541;27;20042;-67
2023/05/17 06:23:08;;;;;;;2.78;1.52;;;;;;;19.49;44.44;102701.66;5124763;27;20046;-67
2023/05/17 06:25:33;;;;;;;2.13;0.90;;;;;;;19.51;44.24;102711.13;5123748;27;20046;-67
2023/05/17 06:28:01;;;;;;;1.95;1.05;;;;;;;19.51;44.18;102700.56;5124841;27;20411;-67
2023/05/17 06:30:27;;;;;;;3.30;1.38;;;;;;;19.52;44.08;102709.31;5125723;27;20158;-67
2023/05/17 06:32:52;;;;;;;3.25;1.20;;;;;;;19.51;44.16;102705.84;5123350;27;20583;-67
2023/05/17 06:35:18;;;;;;;1.80;0.88;;;;;;;19.53;44.13;102711.00;5119454;27;20031;-66
2023/05/17 06:37:43;;;;;;;3.65;1.52;;;;;;;19.52;44.14;102712.81;5121872;27;20069;-67
2023/05/17 06:40:09;;;;;;;3.88;1.30;;;;;;;19.52;44.19;102726.00;5118749;27;20039;-67
2023/05/17 06:42:35;;;;;;;3.25;1.30;;;;;;;19.51;44.09;102728.78;5116010;27;20054;-67
2023/05/17 06:45:00;;;;;;;0.77;0.70;;;;;;;19.50;44.17;102732.41;5119274;27;20047;-67
2023/05/17 06:47:26;;;;;;;3.90;1.30;;;;;;;19.49;44.07;102731.56;5119199;27;20043;-66
2023/05/17 06:49:51;;;;;;;5.28;1.60;;;;;;;19.49;44.27;102736.03;5117358;27;20043;-66
2023/05/17 06:52:17;;;;;;;4.28;1.38;;;;;;;19.49;44.14;102738.66;5120906;27;20031;-66
2023/05/17 06:54:43;;;;;;;2.22;1.13;;;;;;;19.50;44.26;102745.63;5123337;27;20046;-66
2023/05/17 06:57:08;;;;;;;4.85;1.20;;;;;;;19.46;44.39;102750.34;5126088;27;20047;-67
2023/05/17 06:59:35;;;;;;;4.60;1.95;;;;;;;19.45;44.31;102753.09;5122500;27;20035;-66
2023/05/17 07:02:01;;;;;;;3.70;1.10;;;;;;;19.38;44.36;102747.50;5118492;27;20073;-66
2023/05/17 07:04:26;;;;;;;4.60;1.27;;;;;;;19.45;44.19;102758.41;5115636;27;20039;-66
2023/05/17 07:06:52;;;;;;;2.22;1.10;;;;;;;19.50;44.17;102766.75;5124428;27;20523;-66
2023/05/17 07:09:19;;;;;;;4.18;1.55;;;;;;;19.45;44.28;102761.88;5120497;27;20043;-66
2023/05/17 07:11:44;;;;;;;1.13;1.00;;;;;;;19.48;44.21;102760.78;5121948;27;20047;-66
2023/05/17 07:14:10;;;;;;;4.75;1.42;;;;;;;19.49;44.18;102767.72;5124842;27;20108;-66
2023/05/17 07:16:35;;;;;;;3.50;1.38;;;;;;;19.51;44.30;102777.19;5125362;27;20412;-67
2023/05/17 07:19:01;;;;;;;4.15;1.45;;;;;;;19.53;44.19;102772.59;5125598;27;20406;-66
2023/05/17 07:21:27;;;;;;;2.95;1.35;;;;;;;19.62;44.07;102776.31;5126023;27;20031;-66
2023/05/17 07:23:52;;;;;;;4.00;1.30;;;;;;;19.69;43.90;102780.09;5123591;27;20047;-67
2023/05/17 07:26:18;;;;;;;3.97;1.17;;;;;;;19.73;43.91;102785.97;5119410;27;20039;-66
2023/05/17 07:28:44;;;;;;;3.53;1.77;;;;;;;19.77;43.90;102782.94;5125095;27;20044;-66
2023/05/17 07:31:10;;;;;;;6.65;3.22;;;;;;;19.79;43.80;102780.16;5124266;27;20039;-66
2023/05/17 07:33:36;;;;;;;6.35;1.50;;;;;;;19.81;43.85;102787.00;5115714;27;20458;-66
2023/05/17 07:36:02;;;;;;;2.92;1.50;;;;;;;19.82;43.91;102790.47;5120866;27;20096;-66
2023/05/17 07:38:28;;;;;;;3.05;1.30;;;;;;;19.83;43.80;102787.69;5124330;27;20039;-66
2023/05/17 07:40:53;;;;;;;1.58;0.95;;;;;;;19.84;43.71;102792.00;5123265;27;20050;-67
2023/05/17 07:43:19;;;;;;;4.07;1.55;;;;;;;19.84;43.65;102796.47;5128425;27;20119;-66
2023/05/17 07:45:44;;;;;;;2.63;0.77;;;;;;;19.85;43.71;102804.25;5121617;27;20042;-66
2023/05/17 07:48:10;;;;;;;4.45;1.30;;;;;;;19.85;43.92;102800.78;5122279;27;20510;-67
2023/05/17 07:50:35;;;;;;;5.07;1.48;;;;;;;19.85;43.74;102806.91;5126273;27;20477;-67
2023/05/17 07:53:01;;;;;;;3.38;1.08;;;;;;;19.84;43.79;102810.50;5126350;27;20027;-67
2023/05/17 07:55:26;;;;;;;2.92;1.55;;;;;;;19.83;43.77;102813.28;5125649;27;20627;-66
2023/05/17 07:57:52;;;;;;;2.83;1.27;;;;;;;19.81;43.88;102809.94;5128869;27;20050;-67
2023/05/17 08:00:18;;;;;;;3.97;1.35;;;;;;;19.83;43.74;102815.94;5127656;27;20564;-67
2023/05/17 08:02:44;;;;;;;2.45;1.40;;;;;;;19.83;43.81;102815.94;5129257;27;20502;-67
2023/05/17 08:05:09;;;;;;;2.65;1.23;;;;;;;19.77;43.77;102812.03;5119750;27;20107;-66
2023/05/17 08:07:35;;;;;;;3.00;1.20;;;;;;;19.80;43.71;102819.69;5122878;27;20035;-67
2023/05/17 08:10:00;;;;;;;2.05;1.40;;;;;;;19.80;43.79;102826.78;5123090;27;20040;-67
2023/05/17 08:12:26;;;;;;;4.13;1.85;;;;;;;19.80;43.71;102827.63;5126590;27;20705;-66
2023/05/17 08:14:52;;;;;;;4.22;1.50;;;;;;;19.80;43.76;102819.69;5124690;27;20047;-66
2023/05/17 08:17:17;;;;;;;2.83;1.10;;;;;;;19.80;43.77;102824.97;5120889;27;20035;-67
2023/05/17 08:19:43;;;;;;;6.35;1.45;;;;;;;19.81;43.70;102829.28;5123571;27;20496;-66
2023/05/17 08:22:09;;;;;;;3.92;1.33;;;;;;;19.82;43.60;102822.19;5124911;27;20043;-66
2023/05/17 08:24:35;;;;;;;2.67;1.42;;;;;;;19.82;43.70;102830.97;5125455;27;20035;-66
2023/05/17 08:27:01;;;;;;;3.88;1.55;;;;;;;19.81;43.65;102820.53;5121831;27;20488;-66
2023/05/17 08:29:26;;;;;;;2.65;1.30;;;;;;;19.82;43.57;102832.75;5126374;27;20031;-66
2023/05/17 08:31:53;;;;;;;2.30;1.58;;;;;;;19.80;43.76;102824.13;5116914;27;20043;-66
2023/05/17 08:34:19;;;;;;;3.30;1.20;;;;;;;19.76;43.77;102825.38;5122010;27;20514;-66
2023/05/17 08:36:44;;;;;;;3.97;1.52;;;;;;;19.80;43.59;102829.41;5122912;27;20040;-67
2023/05/17 08:39:11;;;;;;;4.47;1.95;;;;;;;19.81;43.69;102829.28;5120962;27;20043;-66
2023/05/17 08:41:37;;;;;;;2.85;1.33;;;;;;;19.84;43.58;102836.94;5124872;27;20049;-67
2023/05/17 08:44:05;;;;;;;5.30;1.70;;;;;;;19.85;43.53;102827.22;5125026;27;20388;-66
2023/05/17 08:46:32;;;;;;;2.55;1.30;;;;;;;19.86;43.74;102834.16;5122989;27;21218;-66
2023/05/17 08:49:00;;;;;;;5.18;1.70;;;;;;;19.84;43.59;102828.19;5120425;27;20538;-66
2023/05/17 08:51:27;;;;;;;1.40;1.00;;;;;;;19.83;43.62;102831.78;5123606;27;20095;-67
2023/05/17 08:53:53;;;;;;;2.65;1.20;;;;;;;19.87;43.64;102835.84;5121799;27;20042;-66
2023/05/17 08:56:21;;;;;;;3.15;1.30;;;;;;;19.85;43.60;102846.56;5125012;27;20031;-67
2023/05/17 08:58:50;;;;;;;5.18;1.83;;;;;;;19.89;43.61;102845.31;5121588;27;20042;-66
2023/05/17 09:01:17;;;;;;;2.33;1.27;;;;;;;19.85;43.38;102843.91;5118101;27;20126;-66
2023/05/17 09:03:49;;;;;;;2.85;1.30;;;;;;;19.94;43.37;102844.09;5125749;27;20035;-67
2023/05/17 09:06:24;;;;;;;2.20;1.08;;;;;;;19.99;43.34;102842.75;5121172;27;20039;-67
2023/05/17 09:08:53;;;;;;;3.33;1.13;;;;;;;19.99;43.43;102855.13;5120933;27;20031;-66
2023/05/17 09:11:31;;;;;;;3.33;1.40;;;;;;;20.03;43.17;102854.72;5121832;27;20114;-66
2023/05/17 09:14:02;;;;;;;3.13;1.40;;;;;;;20.04;43.18;102855.56;5125260;27;20031;-67
2023/05/17 09:16:32;;;;;;;2.70;1.45;;;;;;;20.08;43.12;102859.59;5119557;27;20039;-66
2023/05/17 09:18:58;;;;;;;4.30;1.50;;;;;;;20.07;43.17;102850.00;5118390;27;20067;-66
2023/05/17 09:21:26;;;;;;;1.60;1.10;;;;;;;20.06;43.07;102853.59;5114865;27;20050;-66
2023/05/17 09:23:53;;;;;;;4.70;1.48;;;;;;;20.04;43.31;102858.19;5116467;27;20100;-67
2023/05/17 09:26:19;;;;;;;3.13;1.25;;;;;;;20.02;43.03;102857.50;5123968;27;20701;-66
2023/05/17 09:28:46;;;;;;;3.20;1.50;;;;;;;20.03;43.27;102856.53;5119155;27;20051;-67
2023/05/17 09:31:14;;;;;;;2.83;1.35;;;;;;;20.06;43.08;102866.84;5114987;27;20036;-66
2023/05/17 09:33:45;;;;;;;2.15;1.30;;;;;;;20.07;42.94;102855.28;5120769;27;20814;-64
2023/05/17 09:36:15;;;;;;;3.00;1.50;;;;;;;20.21;43.14;102861.06;5078107;27;20039;-70
2023/05/17 09:38:41;;;;;;;4.35;1.58;;;;;;;20.33;42.78;102867.09;5126118;27;20134;-70
2023/05/17 09:41:06;;;;;;;4.47;1.52;;;;;;;20.40;42.52;102868.22;5081628;27;20023;-68
2023/05/17 09:43:32;;;;;;;2.22;1.08;;;;;;;20.45;42.50;102866.03;5119017;27;20035;-70
2023/05/17 09:45:58;;;;;;;3.17;1.60;;;;;;;20.50;42.30;102874.44;5080529;27;20050;-68
2023/05/17 09:48:26;;;;;;;2.67;1.55;;;;;;;20.53;42.14;102875.97;5120232;27;20046;-69
2023/05/17 09:50:52;;;;;;;4.05;1.40;;;;;;;20.61;42.32;102875.28;5086352;27;20043;-69
2023/05/17 09:53:31;;;;;;;2.25;1.13;;;;;;;20.63;41.55;102879.47;5126969;27;20042;-68
2023/05/17 09:55:59;;;;;;;3.60;1.35;;;;;;;20.69;41.49;102878.94;5068986;27;20043;-67
2023/05/17 09:58:27;;;;;;;3.15;1.52;;;;;;;20.72;41.28;102877.84;5111026;27;20636;-71
2023/05/17 10:00:57;;;;;;;4.25;1.55;;;;;;;20.76;41.40;102881.88;5122743;28;20651;-67
2023/05/17 10:03:25;;;;;;;2.35;1.13;;;;;;;20.77;40.81;102878.25;5118368;28;20032;-66
2023/05/17 10:05:52;;;;;;;3.92;1.58;;;;;;;20.83;40.83;102890.97;5066184;27;20052;-66
2023/05/17 10:08:22;;;;;;;4.80;1.50;;;;;;;20.85;40.73;102883.72;5119697;28;20067;-68
2023/05/17 10:10:51;;;;;;;4.45;1.65;;;;;;;20.89;40.65;102878.97;5081587;28;20027;-70
2023/05/17 10:13:23;;;;;;;4.13;1.60;;;;;;;20.91;40.61;102882.31;5119729;28;20030;-67
2023/05/17 10:15:50;;;;;;;3.30;1.40;;;;;;;20.93;40.63;102881.22;5079710;27;20764;-62
2023/05/17 10:18:16;;;;;;;3.80;1.30;;;;;;;20.98;40.21;102891.38;5111196;27;20048;-67
2023/05/17 10:20:42;;;;;;;3.55;1.25;;;;;;;20.97;40.26;102885.25;5125648;27;20066;-67
2023/05/17 10:23:10;;;;;;;4.72;1.45;;;;;;;20.99;40.45;102882.47;5080987;27;20118;-68
2023/05/17 10:25:37;;;;;;;4.15;1.23;;;;;;;20.99;40.12;102880.66;5120361;27;20100;-66
2023/05/17 10:28:05;;;;;;;2.88;1.23;;;;;;;20.99;40.18;102888.59;5082496;28;20451;-67
2023/05/17 10:30:32;;;;;;;3.75;1.30;;;;;;;20.99;40.37;102896.53;5119936;28;20203;-67
2023/05/17 10:32:59;;;;;;;3.28;1.40;;;;;;;21.09;40.46;102888.63;5085403;27;20095;-67
2023/05/17 10:35:26;;;;;;;2.35;1.27;;;;;;;21.17;40.59;102880.78;5116699;28;20035;-68
2023/05/17 10:37:52;;;;;;;2.97;1.25;;;;;;;21.23;40.91;102888.22;5081487;28;20035;-67
2023/05/17 10:40:19;;;;;;;1.60;1.05;;;;;;;21.24;40.50;102883.75;5123125;27;20046;-68
2023/05/17 10:42:50;;;;;;;3.33;1.30;;;;;;;21.24;40.70;102889.03;5105246;27;20058;-66
2023/05/17 10:45:19;;;;;;;2.45;1.00;;;;;;;21.26;40.80;102898.56;5120056;28;20096;-69
2023/05/17 10:47:45;;;;;;;9.40;2.20;;;;;;;21.25;40.64;102898.69;5077700;28;20103;-67
2023/05/17 10:50:12;;;;;;;5.13;1.77;;;;;;;21.22;40.06;102901.59;5120585;27;20568;-68
2023/05/17 10:52:45;;;;;;;5.60;1.35;;;;;;;21.21;40.06;102903.41;5080522;28;20762;-67
2023/05/17 10:55:11;;;;;;;2.72;1.38;;;;;;;21.22;40.25;102894.50;5120511;28;20031;-67
2023/05/17 10:57:37;;;;;;;2.13;1.30;;;;;;;21.23;40.43;102905.91;5079219;28;20958;-67
2023/05/17 11:00:07;;;;;;;2.13;1.10;;;;;;;21.22;40.27;102889.19;5115906;27;20047;-67
2023/05/17 11:02:38;;;;;;;1.88;0.90;;;;;;;21.22;40.28;102901.59;5076725;28;20098;-67
2023/05/17 11:05:04;;;;;;;1.50;1.13;;;;;;;21.21;40.24;102889.34;5119404;28;20058;-67
2023/05/17 11:07:31;;;;;;;3.70;0.98;;;;;;;21.24;40.20;102886.41;5107738;27;20054;-66
2023/05/17 11:10:04;;;;;;;4.38;1.45;;;;;;;21.24;40.18;102884.63;5122685;27;20043;-67
2023/05/17 11:12:31;;;;;;;4.57;1.30;;;;;;;21.21;40.42;102882.22;5085128;27;20038;-67
2023/05/17 11:14:57;;;;;;;1.67;1.05;;;;;;;21.21;40.30;102890.16;5121158;27;20030;-67
2023/05/17 11:17:27;;;;;;;2.90;0.90;;;;;;;21.21;40.20;102890.16;5084227;27;20428;-67
2023/05/17 11:20:00;;;;;;;2.03;1.08;;;;;;;21.20;40.29;102888.50;5121908;27;21852;-68
2023/05/17 11:22:27;;;;;;;3.20;0.95;;;;;;;21.19;40.61;102889.47;5078630;27;20039;-67
2023/05/17 11:24:56;;;;;;;4.72;1.73;;;;;;;21.25;40.26;102888.94;5110238;27;20691;-67